Time,TemperatureF,DewpointF,PressureIn,WindDirection,WindDirectionDegrees,WindSpeedMPH,WindSpeedGustMPH,Humidity,HourlyPrecipIn,Conditions,Clouds,dailyrainin,SoftwareType,DateUTC
2013-01-07 00:02:00,37.0,22.8,30.31,NW,315,2.3,2.3,56,0.00,CLR,,0.00,WeatherDisplay:10.37,2013-01-07 06:02:00,
2013-01-07 00:07:00,37.0,22.8,30.31,NNE,22,2.3,2.3,56,0.00,CLR,,0.00,WeatherDisplay:10.37,2013-01-07 06:07:00,
2013-01-07 00:12:00,36.9,22.6,30.31,North,0,0.0,0.0,56,0.00,CLR,,0.00,WeatherDisplay:10.37,2013-01-07 06:12:00,
2013-01-07 00:17:00,36.5,22.3,30.31,North,0,0.0,0.0,56,0.00,CLR,,0.00,WeatherDisplay:10.37,2013-01-07 06:17:00,
2013-01-07 00:22:00,36.7,22.4,30.31,North,0,1.1,0.0,56,0.00,CLR,,0.00,WeatherDisplay:10.37,2013-01-07 06:22:00,
2013-01-07 00:27:00,36.5,22.3,30.31,North,0,1.1,1.1,56,0.00,CLR,,0.00,WeatherDisplay:10.37,2013-01-07 06:27:00,
2013-01-07 00:32:00,36.3,22.1,30.34,North,0,0.0,0.0,56,0.00,CLR,,0.00,WeatherDisplay:10.37,2013-01-07 06:32:00,
2013-01-07 00:37:00,36.0,21.8,30.34,North,0,0.0,0.0,56,0.00,CLR,,0.00,WeatherDisplay:10.37,2013-01-07 06:37:00,
2013-01-07 00:42:00,35.6,23.5,30.34,North,0,0.0,0.0,61,0.00,CLR,,0.00,WeatherDisplay:10.37,2013-01-07 06:42:00,
2013-01-07 00:47:00,35.1,23.7,30.34,North,0,0.0,0.0,63,0.00,CLR,,0.00,WeatherDisplay:10.37,2013-01-07 06:47:00,
2013-01-07 00:52:00,34.9,23.6,30.34,North,0,0.0,0.0,63,0.00,CLR,,0.00,WeatherDisplay:10.37,2013-01-07 06:52:00,
2013-01-07 00:57:00,34.9,23.6,30.34,North,0,1.1,0.0,63,0.00,CLR,,0.00,WeatherDisplay:10.37,2013-01-07 06:57:00,
2013-01-07 01:02:00,34.5,23.2,30.31,North,0,0.0,0.0,63,0.00,CLR,,0.00,WeatherDisplay:10.37,2013-01-07 07:02:00,
2013-01-07 01:07:00,34.2,24.7,30.31,North,0,0.0,0.0,68,0.00,CLR,,0.00,WeatherDisplay:10.37,2013-01-07 07:07:00,
2013-01-07 01:12:00,34.0,24.5,30.34,North,0,0.0,0.0,68,0.00,CLR,,0.00,WeatherDisplay:10.37,2013-01-07 07:12:00,
2013-01-07 01:17:00,33.8,24.4,30.34,North,0,0.0,0.0,68,0.00,CLR,,0.00,WeatherDisplay:10.37,2013-01-07 07:17:00,
2013-01-07 01:22:00,33.8,24.4,30.34,North,0,0.0,0.0,68,0.00,CLR,,0.00,WeatherDisplay:10.37,2013-01-07 07:22:00,
2013-01-07 01:27:00,33.4,26.0,30.34,North,0,0.0,0.0,74,0.00,CLR,,0.00,WeatherDisplay:10.37,2013-01-07 07:27:00,
2013-01-07 01:32:00,33.3,27.8,30.28,North,0,0.0,0.0,80,0.00,CLR,,0.00,WeatherDisplay:10.37,2013-01-07 07:32:00,
2013-01-07 01:37:00,33.3,27.8,30.28,North,0,0.0,0.0,80,0.00,CLR,,0.00,WeatherDisplay:10.37,2013-01-07 07:37:00,
2013-01-07 01:42:00,33.1,27.6,30.28,North,0,0.0,0.0,80,0.00,CLR,,0.00,WeatherDisplay:10.37,2013-01-07 07:42:00,
2013-01-07 01:47:00,33.1,27.6,30.34,North,0,0.0,0.0,80,0.00,CLR,,0.00,WeatherDisplay:10.37,2013-01-07 07:47:00,
2013-01-07 01:52:00,32.7,27.2,30.34,North,0,0.0,0.0,80,0.00,CLR,,0.00,WeatherDisplay:10.37,2013-01-07 07:52:00,
2013-01-07 01:57:00,32.7,27.8,30.34,North,0,0.0,0.0,82,0.00,CLR,,0.00,WeatherDisplay:10.37,2013-01-07 07:57:00,
2013-01-07 02:02:00,32.5,27.7,30.34,North,0,0.0,0.0,82,0.00,CLR,,0.00,WeatherDisplay:10.37,2013-01-07 08:02:00,
2013-01-07 02:07:00,32.5,27.7,30.34,North,0,0.0,0.0,82,0.00,CLR,,0.00,WeatherDisplay:10.37,2013-01-07 08:07:00,
2013-01-07 02:12:00,32.4,27.5,30.34,North,0,0.0,0.0,82,0.00,CLR,,0.00,WeatherDisplay:10.37,2013-01-07 08:12:00,
2013-01-07 02:17:00,32.4,27.5,30.34,North,0,0.0,0.0,82,0.00,CLR,,0.00,WeatherDisplay:10.37,2013-01-07 08:17:00,
2013-01-07 02:23:00,32.0,99.9,30.34,North,0,0.0,0.0,118,0.00,CLR,,0.00,WeatherDisplay:10.37,2013-01-07 08:23:00,
2013-01-07 02:28:00,32.0,27.7,30.34,North,0,0.0,0.0,84,0.00,CLR,,0.00,WeatherDisplay:10.37,2013-01-07 08:28:00,
2013-01-07 02:33:00,32.0,27.7,30.34,North,0,0.0,0.0,84,0.00,CLR,,0.00,WeatherDisplay:10.37,2013-01-07 08:33:00,
2013-01-07 02:38:00,31.6,27.4,30.34,North,0,0.0,0.0,84,0.00,CLR,,0.00,WeatherDisplay:10.37,2013-01-07 08:38:00,
2013-01-07 02:43:00,31.5,27.2,30.34,North,0,0.0,0.0,84,0.00,CLR,,0.00,WeatherDisplay:10.37,2013-01-07 08:43:00,
2013-01-07 02:48:00,31.3,27.0,30.34,North,0,0.0,0.0,84,0.00,CLR,,0.00,WeatherDisplay:10.37,2013-01-07 08:48:00,
2013-01-07 02:53:00,31.3,27.6,30.34,North,0,0.0,0.0,86,0.00,CLR,,0.00,WeatherDisplay:10.37,2013-01-07 08:53:00,
2013-01-07 02:58:00,31.3,27.6,30.31,North,0,0.0,0.0,86,0.00,CLR,,0.00,WeatherDisplay:10.37,2013-01-07 08:58:00,
2013-01-07 03:03:00,31.1,27.4,30.31,North,0,0.0,0.0,86,0.00,CLR,,0.00,WeatherDisplay:10.37,2013-01-07 09:03:00,
2013-01-07 03:08:00,31.5,27.8,30.31,North,0,0.0,0.0,86,0.00,CLR,,0.00,WeatherDisplay:10.37,2013-01-07 09:08:00,
2013-01-07 03:13:00,31.3,27.6,30.31,North,0,0.0,0.0,86,0.00,CLR,,0.00,WeatherDisplay:10.37,2013-01-07 09:13:00,
2013-01-07 03:18:00,31.5,28.3,30.31,North,0,0.0,0.0,88,0.00,CLR,,0.00,WeatherDisplay:10.37,2013-01-07 09:18:00,
2013-01-07 03:23:00,31.5,28.3,30.31,North,0,0.0,0.0,88,0.00,CLR,,0.00,WeatherDisplay:10.37,2013-01-07 09:23:00,
2013-01-07 03:28:00,31.5,28.3,30.31,North,0,0.0,0.0,88,0.00,CLR,,0.00,WeatherDisplay:10.37,2013-01-07 09:28:00,
2013-01-07 03:33:00,31.6,28.5,30.31,North,0,0.0,0.0,88,0.00,CLR,,0.00,WeatherDisplay:10.37,2013-01-07 09:33:00,
2013-01-07 03:38:00,31.8,28.7,30.31,NNE,22,1.1,1.1,88,0.00,CLR,,0.00,WeatherDisplay:10.37,2013-01-07 09:38:00,
2013-01-07 03:43:00,31.8,28.7,30.28,NNE,22,2.3,2.3,88,0.00,CLR,,0.00,WeatherDisplay:10.37,2013-01-07 09:43:00,
2013-01-07 03:48:00,31.8,28.7,30.28,NNE,22,2.0,2.0,88,0.00,CLR,,0.00,WeatherDisplay:10.37,2013-01-07 09:48:00,
2013-01-07 03:53:00,32.0,28.8,30.28,NNE,22,0.0,0.0,88,0.00,CLR,,0.00,WeatherDisplay:10.37,2013-01-07 09:53:00,
2013-01-07 03:58:00,32.0,28.8,30.28,NNE,22,0.0,0.0,88,0.00,CLR,,0.00,WeatherDisplay:10.37,2013-01-07 09:58:00,
2013-01-07 04:03:00,31.8,28.7,30.28,NNE,22,0.0,0.0,88,0.00,CLR,,0.00,WeatherDisplay:10.37,2013-01-07 10:03:00,
2013-01-07 04:08:00,31.8,29.2,30.28,NNE,22,0.0,0.0,90,0.00,CLR,,0.00,WeatherDisplay:10.37,2013-01-07 10:08:00,
2013-01-07 04:13:00,31.8,29.2,30.28,NNE,22,0.0,0.0,90,0.00,CLR,,0.00,WeatherDisplay:10.37,2013-01-07 10:13:00,
2013-01-07 04:18:00,31.5,28.9,30.28,NNE,22,0.0,0.0,90,0.00,CLR,,0.00,WeatherDisplay:10.37,2013-01-07 10:18:00,
2013-01-07 04:23:00,31.5,29.1,30.28,NNE,22,0.0,0.0,91,0.00,CLR,,0.00,WeatherDisplay:10.37,2013-01-07 10:23:00,
2013-01-07 04:28:00,31.3,28.7,30.25,NNE,22,0.0,0.0,90,0.00,CLR,,0.00,WeatherDisplay:10.37,2013-01-07 10:28:00,
2013-01-07 04:33:00,31.5,28.9,30.25,NNE,22,0.0,0.0,90,0.00,CLR,,0.00,WeatherDisplay:10.37,2013-01-07 10:33:00,
2013-01-07 04:38:00,31.3,28.7,30.25,NNE,22,0.0,0.0,90,0.00,CLR,,0.00,WeatherDisplay:10.37,2013-01-07 10:38:00,
2013-01-07 04:43:00,31.6,29.0,30.28,NNE,22,0.0,0.0,90,0.00,CLR,,0.00,WeatherDisplay:10.37,2013-01-07 10:43:00,
2013-01-07 04:48:00,31.3,28.7,30.28,NNE,22,1.1,1.1,90,0.00,CLR,,0.00,WeatherDisplay:10.37,2013-01-07 10:48:00,
2013-01-07 04:53:00,31.3,28.7,30.28,NNE,22,0.0,0.0,90,0.00,CLR,,0.00,WeatherDisplay:10.37,2013-01-07 10:53:00,
2013-01-07 04:58:00,31.5,29.1,30.28,NNE,22,0.0,0.0,91,0.00,CLR,,0.00,WeatherDisplay:10.37,2013-01-07 10:58:00,
2013-01-07 05:03:00,31.6,29.3,30.28,NNE,22,0.0,0.0,91,0.00,CLR,,0.00,WeatherDisplay:10.37,2013-01-07 11:03:00,
2013-01-07 05:08:00,32.0,29.4,30.28,NNW,338,1.1,1.1,90,0.00,CLR,,0.00,WeatherDisplay:10.37,2013-01-07 11:08:00,
2013-01-07 05:13:00,32.4,29.2,30.28,North,0,2.3,2.3,88,0.00,CLR,,0.00,WeatherDisplay:10.37,2013-01-07 11:13:00,
2013-01-07 05:18:00,32.7,29.0,30.28,NNW,338,1.1,1.1,86,0.00,CLR,,0.00,WeatherDisplay:10.37,2013-01-07 11:18:00,
2013-01-07 05:23:00,32.7,29.0,30.28,NNW,338,2.0,2.0,86,0.00,CLR,,0.00,WeatherDisplay:10.37,2013-01-07 11:23:00,
2013-01-07 05:28:00,32.7,29.0,30.28,North,0,2.3,0.0,86,0.00,CLR,,0.00,WeatherDisplay:10.37,2013-01-07 11:28:00,
2013-01-07 05:33:00,32.9,29.2,30.28,NNW,338,1.1,0.0,86,0.00,CLR,,0.00,WeatherDisplay:10.37,2013-01-07 11:33:00,
2013-01-07 05:38:00,32.9,29.2,30.28,NNW,338,1.1,1.1,86,0.00,CLR,,0.00,WeatherDisplay:10.37,2013-01-07 11:38:00,
2013-01-07 05:43:00,32.7,29.0,30.28,NNW,338,0.0,0.0,86,0.00,CLR,,0.00,WeatherDisplay:10.37,2013-01-07 11:43:00,
2013-01-07 05:48:00,32.5,28.8,30.28,NNW,338,2.3,2.3,86,0.00,CLR,,0.00,WeatherDisplay:10.37,2013-01-07 11:48:00,
2013-01-07 05:53:00,32.7,29.0,30.28,North,0,2.3,2.3,86,0.00,CLR,,0.00,WeatherDisplay:10.37,2013-01-07 11:53:00,
2013-01-07 05:58:00,33.1,29.3,30.31,North,0,3.5,3.5,86,0.00,CLR,,0.00,WeatherDisplay:10.37,2013-01-07 11:58:00,
2013-01-07 06:03:00,33.1,28.8,30.31,NNW,338,1.1,0.0,84,0.00,CLR,,0.00,WeatherDisplay:10.37,2013-01-07 12:03:00,
2013-01-07 06:08:00,33.3,28.9,30.31,NW,315,3.5,3.5,84,0.00,CLR,,0.00,WeatherDisplay:10.37,2013-01-07 12:08:00,
2013-01-07 06:13:00,33.3,28.9,30.28,NW,315,1.1,1.1,84,0.00,CLR,,0.00,WeatherDisplay:10.37,2013-01-07 12:13:00,
2013-01-07 06:18:00,33.3,28.9,30.28,NW,315,1.1,0.0,84,0.00,CLR,,0.00,WeatherDisplay:10.37,2013-01-07 12:18:00,
2013-01-07 06:23:00,33.3,28.9,30.28,NW,315,2.3,2.3,84,0.00,CLR,,0.00,WeatherDisplay:10.37,2013-01-07 12:23:00,
2013-01-07 06:28:00,33.3,28.9,30.28,NW,315,2.3,2.3,84,0.00,CLR,,0.00,WeatherDisplay:10.37,2013-01-07 12:28:00,
2013-01-07 06:33:00,33.3,28.9,30.28,NNW,338,2.3,2.3,84,0.00,CLR,,0.00,WeatherDisplay:10.37,2013-01-07 12:33:00,
2013-01-07 06:38:00,33.3,28.9,30.28,NNW,338,1.1,0.0,84,0.00,CLR,,0.00,WeatherDisplay:10.37,2013-01-07 12:38:00,
2013-01-07 06:43:00,33.4,29.1,30.28,NNW,338,1.4,0.0,84,0.00,CLR,,0.00,WeatherDisplay:10.37,2013-01-07 12:43:00,
2013-01-07 06:48:00,33.4,29.1,30.28,NNW,338,0.0,0.0,84,0.00,CLR,,0.00,WeatherDisplay:10.37,2013-01-07 12:48:00,
2013-01-07 06:53:00,33.3,28.9,30.28,NNW,338,1.1,1.1,84,0.00,CLR,,0.00,WeatherDisplay:10.37,2013-01-07 12:53:00,
2013-01-07 06:58:00,33.6,29.3,30.28,NNW,338,2.3,0.0,84,0.00,CLR,,0.00,WeatherDisplay:10.37,2013-01-07 12:58:00,
2013-01-07 07:03:00,33.6,29.3,30.28,NNW,338,0.0,0.0,84,0.00,CLR,,0.00,WeatherDisplay:10.37,2013-01-07 13:03:00,
2013-01-07 07:08:00,33.4,29.1,30.28,NE,45,1.1,0.0,84,0.00,CLR,,0.00,WeatherDisplay:10.37,2013-01-07 13:08:00,
2013-01-07 07:13:00,33.3,28.9,30.28,NE,45,1.1,1.1,84,0.00,CLR,,0.00,WeatherDisplay:10.37,2013-01-07 13:13:00,
2013-01-07 07:18:00,33.3,28.9,30.28,NE,45,0.0,0.0,84,0.00,CLR,,0.00,WeatherDisplay:10.37,2013-01-07 13:18:00,
2013-01-07 07:23:00,33.3,28.9,30.28,NE,45,0.0,0.0,84,0.00,CLR,,0.00,WeatherDisplay:10.37,2013-01-07 13:23:00,
2013-01-07 07:28:00,33.3,28.9,30.28,NE,45,0.0,0.0,84,0.00,CLR,,0.00,WeatherDisplay:10.37,2013-01-07 13:28:00,
2013-01-07 07:33:00,33.3,28.9,30.28,NE,45,0.0,0.0,84,0.00,CLR,,0.00,WeatherDisplay:10.37,2013-01-07 13:33:00,
2013-01-07 07:38:00,33.3,28.9,30.28,NE,45,0.0,0.0,84,0.00,CLR,,0.00,WeatherDisplay:10.37,2013-01-07 13:38:00,
2013-01-07 07:43:00,33.4,29.1,30.25,NE,45,0.0,0.0,84,0.00,CLR,,0.00,WeatherDisplay:10.37,2013-01-07 13:43:00,
2013-01-07 07:48:00,33.4,29.1,30.25,NE,45,0.0,0.0,84,0.00,CLR,,0.00,WeatherDisplay:10.37,2013-01-07 13:48:00,
2013-01-07 07:54:00,33.4,29.1,30.25,NE,45,0.0,0.0,84,0.00,CLR,,0.00,WeatherDisplay:10.37,2013-01-07 13:54:00,
2013-01-07 07:59:00,33.8,29.5,30.28,North,0,1.1,0.0,84,0.00,CLR,,0.00,WeatherDisplay:10.37,2013-01-07 13:59:00,
2013-01-07 08:04:00,34.2,29.2,30.28,NNE,22,2.3,2.3,82,0.00,CLR,,0.00,WeatherDisplay:10.37,2013-01-07 14:04:00,
2013-01-07 08:09:00,34.5,29.6,30.28,NNW,338,2.3,2.3,82,0.00,CLR,,0.00,WeatherDisplay:10.37,2013-01-07 14:09:00,
2013-01-07 08:14:00,35.2,29.7,30.28,NE,45,3.5,3.5,80,0.00,CLR,,0.00,WeatherDisplay:10.37,2013-01-07 14:14:00,
2013-01-07 08:19:00,36.1,29.9,30.28,NE,45,3.5,3.5,78,0.00,CLR,,0.00,WeatherDisplay:10.37,2013-01-07 14:19:00,
2013-01-07 08:24:00,36.7,30.5,30.28,North,0,2.9,2.9,78,0.00,CLR,,0.00,WeatherDisplay:10.37,2013-01-07 14:24:00,
2013-01-07 08:29:00,37.0,30.8,30.28,North,0,4.6,4.6,78,0.00,CLR,,0.00,WeatherDisplay:10.37,2013-01-07 14:29:00,
2013-01-07 08:34:00,37.6,29.4,30.28,NE,45,3.5,3.5,72,0.00,CLR,,0.00,WeatherDisplay:10.37,2013-01-07 14:34:00,
2013-01-07 08:39:00,37.8,29.5,30.28,NW,315,1.6,1.6,72,0.00,CLR,,0.00,WeatherDisplay:10.37,2013-01-07 14:39:00,
2013-01-07 08:44:00,39.0,30.8,30.25,NNW,338,2.3,2.3,72,0.00,CLR,,0.00,WeatherDisplay:10.37,2013-01-07 14:44:00,
2013-01-07 08:49:00,41.4,30.8,30.25,NNE,22,3.5,3.5,66,0.00,CLR,,0.00,WeatherDisplay:10.37,2013-01-07 14:49:00,
2013-01-07 08:54:00,41.5,31.0,30.25,NE,45,4.6,4.6,66,0.00,CLR,,0.00,WeatherDisplay:10.37,2013-01-07 14:54:00,
2013-01-07 08:59:00,42.4,31.9,30.25,NNE,22,2.3,2.3,66,0.00,CLR,,0.00,WeatherDisplay:10.37,2013-01-07 14:59:00,
2013-01-07 09:04:00,43.9,30.0,30.25,NW,315,4.6,4.6,58,0.00,CLR,,0.00,WeatherDisplay:10.37,2013-01-07 15:04:00,
2013-01-07 09:09:00,44.1,30.2,30.25,North,0,5.8,5.8,58,0.00,CLR,,0.00,WeatherDisplay:10.37,2013-01-07 15:09:00,
2013-01-07 09:14:00,44.2,30.4,30.28,NNE,22,5.8,5.8,58,0.00,CLR,,0.00,WeatherDisplay:10.37,2013-01-07 15:14:00,
2013-01-07 09:19:00,44.4,30.6,30.28,ENE,68,5.8,5.8,58,0.00,CLR,,0.00,WeatherDisplay:10.37,2013-01-07 15:19:00,
2013-01-07 09:24:00,45.3,30.5,30.28,North,0,3.5,3.5,56,0.00,CLR,,0.00,WeatherDisplay:10.37,2013-01-07 15:24:00,
2013-01-07 09:29:00,46.9,32.0,30.28,North,0,3.6,4.0,56,0.00,CLR,,0.00,WeatherDisplay:10.37,2013-01-07 15:29:00,
2013-01-07 09:34:00,48.9,30.1,30.28,North,0,5.8,5.8,48,0.00,CLR,,0.00,WeatherDisplay:10.37,2013-01-07 15:34:00,
2013-01-07 09:39:00,48.7,29.9,30.28,ENE,68,6.0,6.0,48,0.00,CLR,,0.00,WeatherDisplay:10.37,2013-01-07 15:39:00,
2013-01-07 09:44:00,48.2,36.6,30.28,NE,45,5.8,5.8,64,0.00,CLR,,0.00,WeatherDisplay:10.37,2013-01-07 15:44:00,
2013-01-07 09:49:00,47.8,36.2,30.28,ENE,68,4.6,4.6,64,0.00,CLR,,0.00,WeatherDisplay:10.37,2013-01-07 15:49:00,
2013-01-07 09:54:00,47.8,36.2,30.28,NNW,338,5.8,5.8,64,0.00,CLR,,0.00,WeatherDisplay:10.37,2013-01-07 15:54:00,
2013-01-07 09:59:00,49.1,33.6,30.28,NE,45,4.6,4.6,55,0.00,CLR,,0.00,WeatherDisplay:10.37,2013-01-07 15:59:00,
2013-01-07 10:04:00,50.2,34.6,30.28,East,90,5.8,5.8,55,0.00,CLR,,0.00,WeatherDisplay:10.37,2013-01-07 16:04:00,
2013-01-07 10:09:00,52.2,35.1,30.28,NNW,338,5.8,5.8,52,0.00,CLR,,0.00,WeatherDisplay:10.37,2013-01-07 16:09:00,
2013-01-07 10:14:00,53.4,36.2,30.28,East,90,6.9,6.9,52,0.00,CLR,,0.00,WeatherDisplay:10.37,2013-01-07 16:14:00,
2013-01-07 10:19:00,53.6,36.4,30.28,ENE,68,6.9,6.9,52,0.00,CLR,,0.00,WeatherDisplay:10.37,2013-01-07 16:19:00,
2013-01-07 10:24:00,54.3,37.1,30.28,NNE,22,5.8,5.8,52,0.00,CLR,,0.00,WeatherDisplay:10.37,2013-01-07 16:24:00,
2013-01-07 10:29:00,54.3,37.1,30.28,NW,315,5.8,5.8,52,0.00,CLR,,0.00,WeatherDisplay:10.37,2013-01-07 16:29:00,
2013-01-07 10:34:00,54.5,37.2,30.28,East,90,5.8,5.8,52,0.00,CLR,,0.00,WeatherDisplay:10.37,2013-01-07 16:34:00,
2013-01-07 10:39:00,54.7,37.4,30.28,NE,45,5.8,5.8,52,0.00,CLR,,0.00,WeatherDisplay:10.37,2013-01-07 16:39:00,
2013-01-07 10:44:00,55.0,37.7,30.28,NNE,22,8.1,8.1,52,0.00,CLR,,0.00,WeatherDisplay:10.37,2013-01-07 16:44:00,
2013-01-07 10:49:00,54.0,36.7,30.28,North,0,4.6,4.6,52,0.00,CLR,,0.00,WeatherDisplay:10.37,2013-01-07 16:49:00,
2013-01-07 10:54:00,53.1,35.9,30.28,NE,45,8.1,8.1,52,0.00,CLR,,0.00,WeatherDisplay:10.37,2013-01-07 16:54:00,
2013-01-07 10:59:00,53.6,36.4,30.28,East,90,8.1,8.1,52,0.00,CLR,,0.00,WeatherDisplay:10.37,2013-01-07 16:59:00,
2013-01-07 11:04:00,54.1,36.9,30.28,East,90,3.5,3.8,52,0.00,CLR,,0.00,WeatherDisplay:10.37,2013-01-07 17:04:00,
2013-01-07 11:09:00,55.2,37.9,30.28,ENE,68,5.8,5.8,52,0.00,CLR,,0.00,WeatherDisplay:10.37,2013-01-07 17:09:00,
2013-01-07 11:14:00,55.2,37.9,30.28,NNE,22,6.9,6.9,52,0.00,CLR,,0.00,WeatherDisplay:10.37,2013-01-07 17:14:00,
2013-01-07 11:19:00,56.3,37.4,30.28,NE,45,5.8,5.8,49,0.00,CLR,,0.00,WeatherDisplay:10.37,2013-01-07 17:19:00,
2013-01-07 11:24:00,56.1,37.2,30.28,ENE,68,8.5,8.5,49,0.00,CLR,,0.00,WeatherDisplay:10.37,2013-01-07 17:24:00,
2013-01-07 11:29:00,56.1,37.2,30.25,East,90,6.9,6.9,49,0.00,CLR,,0.00,WeatherDisplay:10.37,2013-01-07 17:29:00,
2013-01-07 11:34:00,56.8,37.9,30.25,North,0,5.8,5.8,49,0.00,CLR,,0.00,WeatherDisplay:10.37,2013-01-07 17:34:00,
2013-01-07 11:39:00,56.1,37.2,30.25,ENE,68,6.2,6.2,49,0.00,CLR,,0.00,WeatherDisplay:10.37,2013-01-07 17:39:00,
2013-01-07 11:44:00,57.2,38.2,30.19,East,90,4.6,4.6,49,0.00,CLR,,0.00,WeatherDisplay:10.37,2013-01-07 17:44:00,
2013-01-07 11:49:00,58.3,39.2,30.19,East,90,6.9,6.9,49,0.00,CLR,,0.00,WeatherDisplay:10.37,2013-01-07 17:49:00,
2013-01-07 11:54:00,59.5,40.3,30.19,NNE,22,5.8,5.8,49,0.00,CLR,,0.00,WeatherDisplay:10.37,2013-01-07 17:54:00,
2013-01-07 11:59:00,59.0,39.9,30.22,NE,45,6.9,6.9,49,0.00,CLR,,0.00,WeatherDisplay:10.37,2013-01-07 17:59:00,
2013-01-07 12:04:00,58.1,39.0,30.22,NE,45,4.6,4.6,49,0.00,CLR,,0.00,WeatherDisplay:10.37,2013-01-07 18:04:00,
2013-01-07 12:09:00,57.4,38.4,30.22,NW,315,6.9,6.9,49,0.00,CLR,,0.00,WeatherDisplay:10.37,2013-01-07 18:09:00,
2013-01-07 12:14:00,58.3,39.2,30.19,NNE,22,5.8,5.8,49,0.00,CLR,,0.00,WeatherDisplay:10.37,2013-01-07 18:14:00,
2013-01-07 12:19:00,58.8,39.7,30.19,North,0,4.6,4.6,49,0.00,CLR,,0.00,WeatherDisplay:10.37,2013-01-07 18:19:00,
2013-01-07 12:24:00,58.8,39.7,30.19,SE,135,2.3,2.3,49,0.00,CLR,,0.00,WeatherDisplay:10.37,2013-01-07 18:24:00,
2013-01-07 12:29:00,58.3,39.2,30.22,East,90,6.9,6.9,49,0.00,CLR,,0.00,WeatherDisplay:10.37,2013-01-07 18:29:00,
2013-01-07 12:34:00,58.8,39.7,30.22,ENE,68,4.6,4.6,49,0.00,CLR,,0.00,WeatherDisplay:10.37,2013-01-07 18:34:00,
2013-01-07 12:39:00,59.5,40.3,30.22,ENE,68,2.9,2.9,49,0.00,CLR,,0.00,WeatherDisplay:10.37,2013-01-07 18:39:00,
2013-01-07 12:44:00,59.5,40.3,30.16,NE,45,5.8,5.8,49,0.00,CLR,,0.00,WeatherDisplay:10.37,2013-01-07 18:44:00,
2013-01-07 12:49:00,59.5,40.3,30.16,North,0,4.6,4.6,49,0.00,CLR,,0.00,WeatherDisplay:10.37,2013-01-07 18:49:00,
2013-01-07 12:54:00,59.5,40.3,30.16,North,0,4.6,4.6,49,0.00,CLR,,0.00,WeatherDisplay:10.37,2013-01-07 18:54:00,
2013-01-07 12:59:00,60.1,40.8,30.16,ESE,112,5.8,5.8,49,0.00,CLR,,0.00,WeatherDisplay:10.37,2013-01-07 18:59:00,
2013-01-07 13:04:00,60.8,39.9,30.16,ENE,68,5.8,5.8,46,0.00,CLR,,0.00,WeatherDisplay:10.37,2013-01-07 19:04:00,
2013-01-07 13:09:00,59.5,40.3,30.16,East,90,3.5,3.5,49,0.00,CLR,,0.00,WeatherDisplay:10.37,2013-01-07 19:09:00,
2013-01-07 13:14:00,59.9,40.7,30.10,SE,135,3.5,3.5,49,0.00,CLR,,0.00,WeatherDisplay:10.37,2013-01-07 19:14:00,
2013-01-07 13:19:00,59.5,40.3,30.10,ESE,112,8.1,8.1,49,0.00,CLR,,0.00,WeatherDisplay:10.37,2013-01-07 19:19:00,
2013-01-07 13:24:00,60.3,41.0,30.10,ENE,68,4.6,4.6,49,0.00,CLR,,0.00,WeatherDisplay:10.37,2013-01-07 19:24:00,
2013-01-07 13:29:00,61.7,40.7,30.16,NE,45,8.1,8.1,46,0.00,CLR,,0.00,WeatherDisplay:10.37,2013-01-07 19:29:00,
2013-01-07 13:34:00,62.6,41.5,30.16,East,90,5.8,5.8,46,0.00,CLR,,0.00,WeatherDisplay:10.37,2013-01-07 19:34:00,
2013-01-07 13:39:00,60.4,41.2,30.16,NE,45,5.8,5.8,49,0.00,CLR,,0.00,WeatherDisplay:10.37,2013-01-07 19:39:00,
2013-01-07 13:44:00,60.1,40.8,30.13,NE,45,5.8,5.8,49,0.00,CLR,,0.00,WeatherDisplay:10.37,2013-01-07 19:44:00,
2013-01-07 13:49:00,60.6,41.3,30.13,ENE,68,3.5,3.5,49,0.00,CLR,,0.00,WeatherDisplay:10.37,2013-01-07 19:49:00,
2013-01-07 13:54:00,60.4,41.2,30.13,East,90,5.8,5.8,49,0.00,CLR,,0.00,WeatherDisplay:10.37,2013-01-07 19:54:00,
2013-01-07 13:59:00,60.4,41.2,30.13,NNE,22,3.3,3.3,49,0.00,CLR,,0.00,WeatherDisplay:10.37,2013-01-07 19:59:00,
2013-01-07 14:04:00,61.3,40.4,30.13,NNE,22,2.3,2.3,46,0.00,CLR,,0.00,WeatherDisplay:10.37,2013-01-07 20:04:00,
2013-01-07 14:09:00,61.7,40.7,30.13,ESE,112,8.1,8.1,46,0.00,CLR,,0.00,WeatherDisplay:10.37,2013-01-07 20:09:00,
2013-01-07 14:14:00,60.8,39.9,30.10,ESE,112,4.9,4.9,46,0.00,CLR,,0.00,WeatherDisplay:10.37,2013-01-07 20:14:00,
2013-01-07 14:19:00,60.4,41.2,30.10,ESE,112,2.4,2.4,49,0.00,CLR,,0.00,WeatherDisplay:10.37,2013-01-07 20:19:00,
2013-01-07 14:24:00,60.3,41.0,30.10,ESE,112,5.8,5.8,49,0.00,CLR,,0.00,WeatherDisplay:10.37,2013-01-07 20:24:00,
2013-01-07 14:29:00,60.4,41.2,30.07,SSE,158,4.6,4.6,49,0.00,CLR,,0.00,WeatherDisplay:10.37,2013-01-07 20:29:00,
2013-01-07 14:34:00,60.4,41.2,30.07,NNE,22,5.8,5.8,49,0.00,CLR,,0.00,WeatherDisplay:10.37,2013-01-07 20:34:00,
2013-01-07 14:39:00,61.0,40.0,30.07,ESE,112,4.9,4.9,46,0.00,CLR,,0.00,WeatherDisplay:10.37,2013-01-07 20:39:00,
2013-01-07 14:44:00,61.0,40.0,30.10,SE,135,2.6,2.6,46,0.00,CLR,,0.00,WeatherDisplay:10.37,2013-01-07 20:44:00,
2013-01-07 14:49:00,60.8,39.9,30.10,ENE,68,5.6,5.6,46,0.00,CLR,,0.00,WeatherDisplay:10.37,2013-01-07 20:49:00,
2013-01-07 14:54:00,60.8,39.9,30.10,East,90,3.5,3.5,46,0.00,CLR,,0.00,WeatherDisplay:10.37,2013-01-07 20:54:00,
2013-01-07 14:59:00,60.8,39.9,30.10,East,90,4.6,4.6,46,0.00,CLR,,0.00,WeatherDisplay:10.37,2013-01-07 20:59:00,
2013-01-07 15:04:00,61.9,40.9,30.10,ENE,68,3.5,3.6,46,0.00,SCT,,0.00,WeatherDisplay:10.37,2013-01-07 21:04:00,
2013-01-07 15:09:00,61.3,40.4,30.10,NNE,22,6.9,6.9,46,0.00,SCT,,0.00,WeatherDisplay:10.37,2013-01-07 21:09:00,
2013-01-07 15:14:00,60.8,39.9,30.07,SSE,158,5.8,5.8,46,0.00,SCT,,0.00,WeatherDisplay:10.37,2013-01-07 21:14:00,
2013-01-07 15:19:00,60.3,41.0,30.07,ENE,68,3.5,3.5,49,0.00,SCT,,0.00,WeatherDisplay:10.37,2013-01-07 21:19:00,
2013-01-07 15:24:00,59.7,40.5,30.07,NE,45,4.6,4.6,49,0.00,CLR,,0.00,WeatherDisplay:10.37,2013-01-07 21:24:00,
2013-01-07 15:29:00,59.7,40.5,30.10,West,270,3.5,3.5,49,0.00,CLR,,0.00,WeatherDisplay:10.37,2013-01-07 21:29:00,
2013-01-07 15:34:00,60.1,40.8,30.10,ESE,112,5.8,5.8,49,0.00,CLR,,0.00,WeatherDisplay:10.37,2013-01-07 21:34:00,
2013-01-07 15:39:00,59.7,40.5,30.10,NE,45,4.6,4.6,49,0.00,CLR,,0.00,WeatherDisplay:10.37,2013-01-07 21:39:00,
2013-01-07 15:44:00,59.5,40.3,30.10,ENE,68,6.9,6.9,49,0.00,CLR,,0.00,WeatherDisplay:10.37,2013-01-07 21:44:00,
2013-01-07 15:49:00,59.4,40.2,30.10,SE,135,2.9,2.9,49,0.00,CLR,,0.00,WeatherDisplay:10.37,2013-01-07 21:49:00,
2013-01-07 15:54:00,59.2,40.0,30.10,East,90,4.6,4.6,49,0.00,CLR,,0.00,WeatherDisplay:10.37,2013-01-07 21:54:00,
2013-01-07 15:59:00,59.2,40.0,30.10,ESE,112,2.3,2.3,49,0.00,CLR,,0.00,WeatherDisplay:10.37,2013-01-07 21:59:00,
2013-01-07 16:04:00,58.8,39.7,30.10,NE,45,3.6,3.6,49,0.00,SCT,,0.00,WeatherDisplay:10.37,2013-01-07 22:04:00,
2013-01-07 16:09:00,58.8,39.7,30.10,NNE,22,2.4,2.6,49,0.00,SCT,,0.00,WeatherDisplay:10.37,2013-01-07 22:09:00,
2013-01-07 16:14:00,58.8,39.7,30.07,ENE,68,3.5,3.8,49,0.00,SCT,,0.00,WeatherDisplay:10.37,2013-01-07 22:14:00,
2013-01-07 16:19:00,58.3,39.2,30.07,East,90,4.6,4.6,49,0.00,SCT,,0.00,WeatherDisplay:10.37,2013-01-07 22:19:00,
2013-01-07 16:24:00,58.1,39.0,30.07,NNE,22,2.0,0.0,49,0.00,BKN,,0.00,WeatherDisplay:10.37,2013-01-07 22:24:00,
2013-01-07 16:29:00,57.9,38.9,30.07,NNE,22,2.0,2.0,49,0.00,BKN,,0.00,WeatherDisplay:10.37,2013-01-07 22:29:00,
2013-01-07 16:34:00,57.9,38.9,30.07,East,90,2.3,2.3,49,0.00,BKN,,0.00,WeatherDisplay:10.37,2013-01-07 22:34:00,
2013-01-07 16:39:00,57.9,38.9,30.07,East,90,4.6,4.6,49,0.00,BKN,,0.00,WeatherDisplay:10.37,2013-01-07 22:39:00,
2013-01-07 16:44:00,57.7,38.7,30.07,East,90,3.5,3.5,49,0.00,OVC,,0.00,WeatherDisplay:10.37,2013-01-07 22:44:00,
2013-01-07 16:49:00,57.7,38.7,30.07,NE,45,4.6,4.6,49,0.00,OVC,,0.00,WeatherDisplay:10.37,2013-01-07 22:49:00,
2013-01-07 16:54:00,57.6,38.5,30.07,North,0,4.6,4.6,49,0.00,OVC,,0.00,WeatherDisplay:10.37,2013-01-07 22:54:00,
2013-01-07 16:59:00,57.6,38.5,30.10,ESE,112,2.3,2.3,49,0.00,OVC,,0.00,WeatherDisplay:10.37,2013-01-07 22:59:00,
2013-01-07 17:04:00,57.4,38.4,30.10,NNE,22,4.6,4.6,49,0.00,OVC,,0.00,WeatherDisplay:10.37,2013-01-07 23:04:00,
2013-01-07 17:09:00,57.2,38.2,30.10,NNE,22,2.3,2.4,49,0.00,OVC,,0.00,WeatherDisplay:10.37,2013-01-07 23:09:00,
2013-01-07 17:14:00,57.0,38.0,30.10,NE,45,4.6,4.6,49,0.00,OVC,,0.00,WeatherDisplay:10.37,2013-01-07 23:14:00,
2013-01-07 17:19:00,57.0,38.0,30.10,East,90,3.5,3.5,49,0.00,OVC,,0.00,WeatherDisplay:10.37,2013-01-07 23:19:00,
2013-01-07 17:24:00,56.8,37.9,30.10,East,90,3.5,3.5,49,0.00,OVC,,0.00,WeatherDisplay:10.37,2013-01-07 23:24:00,
2013-01-07 17:29:00,56.8,37.9,30.10,NW,315,4.6,4.6,49,0.00,OVC,,0.00,WeatherDisplay:10.37,2013-01-07 23:29:00,
2013-01-07 17:34:00,56.7,37.7,30.10,ENE,68,4.6,4.6,49,0.00,BKN,,0.00,WeatherDisplay:10.37,2013-01-07 23:34:00,
2013-01-07 17:39:00,56.5,37.5,30.10,NW,315,3.5,3.5,49,0.00,BKN,,0.00,WeatherDisplay:10.37,2013-01-07 23:39:00,
2013-01-07 17:44:00,56.3,37.4,30.10,NNE,22,3.5,3.5,49,0.00,BKN,,0.00,WeatherDisplay:10.37,2013-01-07 23:44:00,
2013-01-07 17:49:00,56.3,37.4,30.10,NNE,22,3.5,3.6,49,0.00,BKN,,0.00,WeatherDisplay:10.37,2013-01-07 23:49:00,
2013-01-07 17:54:00,56.1,37.2,30.10,NE,45,5.8,5.8,49,0.00,OVC,,0.00,WeatherDisplay:10.37,2013-01-07 23:54:00,
2013-01-07 17:59:00,55.8,36.9,30.07,NNE,22,3.5,3.5,49,0.00,OVC,,0.00,WeatherDisplay:10.37,2013-01-07 23:59:00,
2013-01-07 18:04:00,55.8,36.9,30.07,ENE,68,4.6,4.6,49,0.00,OVC,,0.00,WeatherDisplay:10.37,2013-01-08 00:04:00,
2013-01-07 18:10:00,55.4,36.5,30.07,NE,45,3.5,3.5,49,0.00,OVC,,0.00,WeatherDisplay:10.37,2013-01-08 00:10:00,
2013-01-07 18:15:00,55.4,36.5,30.10,NNE,22,5.8,5.8,49,0.00,OVC,,0.00,WeatherDisplay:10.37,2013-01-08 00:15:00,
2013-01-07 18:20:00,55.2,37.9,30.10,NE,45,5.8,5.8,52,0.00,OVC,,0.00,WeatherDisplay:10.37,2013-01-08 00:20:00,
2013-01-07 18:25:00,55.2,37.9,30.10,NE,45,10.4,10.4,52,0.00,OVC,,0.00,WeatherDisplay:10.37,2013-01-08 00:25:00,
2013-01-07 18:30:00,55.0,37.7,30.04,NE,45,9.2,9.2,52,0.00,OVC,,0.00,WeatherDisplay:10.37,2013-01-08 00:30:00,
2013-01-07 18:35:00,54.9,37.6,30.04,NNW,338,3.5,3.5,52,0.00,SCT,,0.00,WeatherDisplay:10.37,2013-01-08 00:35:00,
2013-01-07 18:40:00,54.9,37.6,30.04,North,0,0.0,0.0,52,0.00,SCT,,0.00,WeatherDisplay:10.37,2013-01-08 00:40:00,
2013-01-07 18:45:00,54.9,37.6,30.10,NNE,22,2.3,2.3,52,0.00,SCT,,0.00,WeatherDisplay:10.37,2013-01-08 00:45:00,
2013-01-07 18:50:00,54.9,37.6,30.10,NNW,338,2.3,2.3,52,0.00,SCT,,0.00,WeatherDisplay:10.37,2013-01-08 00:50:00,
2013-01-07 18:55:00,54.9,37.6,30.10,NW,315,1.1,1.1,52,0.00,CLR,,0.00,WeatherDisplay:10.37,2013-01-08 00:55:00,
2013-01-07 19:00:00,54.9,37.6,30.10,NW,315,0.0,0.0,52,0.00,CLR,,0.00,WeatherDisplay:10.37,2013-01-08 01:00:00,
2013-01-07 19:05:00,54.9,37.6,30.10,NNE,22,2.3,2.3,52,0.00,CLR,,0.00,WeatherDisplay:10.37,2013-01-08 01:05:00,
2013-01-07 19:10:00,54.9,37.6,30.10,North,0,1.1,1.4,52,0.00,CLR,,0.00,WeatherDisplay:10.37,2013-01-08 01:10:00,
2013-01-07 19:15:00,54.9,37.6,30.10,North,0,2.3,2.3,52,0.00,BKN,,0.00,WeatherDisplay:10.37,2013-01-08 01:15:00,
2013-01-07 19:20:00,54.9,37.6,30.10,NNE,22,4.6,4.6,52,0.00,BKN,,0.00,WeatherDisplay:10.37,2013-01-08 01:20:00,
2013-01-07 19:25:00,54.9,37.6,30.10,NNE,22,2.3,2.3,52,0.00,BKN,,0.00,WeatherDisplay:10.37,2013-01-08 01:25:00,
2013-01-07 19:30:00,54.9,37.6,30.10,North,0,2.3,2.3,52,0.00,BKN,,0.00,WeatherDisplay:10.37,2013-01-08 01:30:00,
2013-01-07 19:35:00,54.9,37.6,30.10,ENE,68,3.5,3.5,52,0.00,OVC,,0.00,WeatherDisplay:10.37,2013-01-08 01:35:00,
2013-01-07 19:40:00,55.0,37.7,30.10,NE,45,3.5,3.5,52,0.00,OVC,,0.00,WeatherDisplay:10.37,2013-01-08 01:40:00,
2013-01-07 19:45:00,55.0,37.7,30.10,ENE,68,4.6,4.6,52,0.00,OVC,,0.00,WeatherDisplay:10.37,2013-01-08 01:45:00,
2013-01-07 19:50:00,54.9,37.6,30.10,NE,45,3.6,3.6,52,0.00,OVC,,0.00,WeatherDisplay:10.37,2013-01-08 01:50:00,
2013-01-07 19:55:00,54.9,37.6,30.10,NNE,22,2.6,2.6,52,0.00,OVC,,0.00,WeatherDisplay:10.37,2013-01-08 01:55:00,
2013-01-07 20:00:00,54.7,37.4,30.10,North,0,2.4,2.4,52,0.00,OVC,,0.00,WeatherDisplay:10.37,2013-01-08 02:00:00,
2013-01-07 20:05:00,54.5,37.2,30.10,North,0,2.6,2.6,52,0.00,OVC,,0.00,WeatherDisplay:10.37,2013-01-08 02:05:00,
2013-01-07 20:10:00,54.5,37.2,30.10,North,0,2.3,2.3,52,0.00,OVC,,0.00,WeatherDisplay:10.37,2013-01-08 02:10:00,
2013-01-07 20:15:00,54.7,37.4,30.10,North,0,3.5,3.5,52,0.00,OVC,,0.00,WeatherDisplay:10.37,2013-01-08 02:15:00,
2013-01-07 20:20:00,54.5,37.2,30.10,NNE,22,4.6,4.6,52,0.00,OVC,,0.00,WeatherDisplay:10.37,2013-01-08 02:20:00,
2013-01-07 20:25:00,54.5,37.2,30.10,NNE,22,3.1,3.1,52,0.00,OVC,,0.00,WeatherDisplay:10.37,2013-01-08 02:25:00,
2013-01-07 20:30:00,54.5,37.2,30.10,NNE,22,2.3,2.3,52,0.00,OVC,,0.00,WeatherDisplay:10.37,2013-01-08 02:30:00,
2013-01-07 20:35:00,54.5,37.2,30.10,NNE,22,1.1,2.2,52,0.00,BKN,,0.00,WeatherDisplay:10.37,2013-01-08 02:35:00,
2013-01-07 20:40:00,54.5,37.2,30.10,North,0,1.1,1.4,52,0.00,BKN,,0.00,WeatherDisplay:10.37,2013-01-08 02:40:00,
2013-01-07 20:45:00,54.5,37.2,30.10,North,0,2.4,2.4,52,0.00,OVC,,0.00,WeatherDisplay:10.37,2013-01-08 02:45:00,
2013-01-07 20:50:00,54.5,37.2,30.10,North,0,2.3,2.3,52,0.00,OVC,,0.00,WeatherDisplay:10.37,2013-01-08 02:50:00,
2013-01-07 20:55:00,54.5,37.2,30.10,North,0,3.5,3.5,52,0.00,OVC,,0.00,WeatherDisplay:10.37,2013-01-08 02:55:00,
2013-01-07 21:00:00,54.5,37.2,30.07,NNE,22,2.3,2.3,52,0.00,OVC,,0.00,WeatherDisplay:10.37,2013-01-08 03:00:00,
2013-01-07 21:05:00,54.5,37.2,30.07,North,0,3.5,3.5,52,0.00,OVC,,0.00,WeatherDisplay:10.37,2013-01-08 03:05:00,
2013-01-07 21:10:00,54.5,37.2,30.07,NNE,22,3.5,3.5,52,0.00,OVC,,0.00,WeatherDisplay:10.37,2013-01-08 03:10:00,
2013-01-07 21:15:00,54.5,37.2,30.07,NNE,22,3.5,3.5,52,0.00,OVC,,0.00,WeatherDisplay:10.37,2013-01-08 03:15:00,
2013-01-07 21:20:00,54.5,37.2,30.07,North,0,2.3,2.3,52,0.00,OVC,,0.00,WeatherDisplay:10.37,2013-01-08 03:20:00,
2013-01-07 21:25:00,54.5,37.2,30.07,East,90,4.6,4.6,52,0.00,OVC,,0.00,WeatherDisplay:10.37,2013-01-08 03:25:00,
2013-01-07 21:30:00,54.5,37.2,30.07,North,0,3.5,3.5,52,0.00,OVC,,0.00,WeatherDisplay:10.37,2013-01-08 03:30:00,
2013-01-07 21:35:00,54.5,37.2,30.07,NE,45,5.8,5.8,52,0.00,OVC,,0.00,WeatherDisplay:10.37,2013-01-08 03:35:00,
2013-01-07 21:40:00,54.5,37.2,30.07,North,0,3.5,3.6,52,0.00,OVC,,0.00,WeatherDisplay:10.37,2013-01-08 03:40:00,
2013-01-07 21:45:00,54.5,37.2,30.07,North,0,2.3,2.3,52,0.00,OVC,,0.00,WeatherDisplay:10.37,2013-01-08 03:45:00,
2013-01-07 21:50:00,54.5,40.0,30.07,NE,45,3.5,3.5,58,0.00,OVC,,0.00,WeatherDisplay:10.37,2013-01-08 03:50:00,
2013-01-07 21:55:00,54.5,40.0,30.07,ENE,68,6.9,6.9,58,0.00,OVC,,0.00,WeatherDisplay:10.37,2013-01-08 03:55:00,
2013-01-07 22:00:00,54.5,40.0,30.07,NNW,338,5.8,5.8,58,0.00,OVC,,0.00,WeatherDisplay:10.37,2013-01-08 04:00:00,
2013-01-07 22:05:00,54.5,40.0,30.07,North,0,6.9,6.9,58,0.00,OVC,,0.00,WeatherDisplay:10.37,2013-01-08 04:05:00,
2013-01-07 22:10:00,54.3,39.8,30.07,NE,45,4.6,4.6,58,0.00,OVC,,0.00,WeatherDisplay:10.37,2013-01-08 04:10:00,
2013-01-07 22:15:00,54.3,39.8,30.04,ENE,68,5.8,5.8,58,0.00,OVC,,0.00,WeatherDisplay:10.37,2013-01-08 04:15:00,
2013-01-07 22:20:00,54.0,39.5,30.04,NE,45,5.8,6.0,58,0.00,OVC,,0.00,WeatherDisplay:10.37,2013-01-08 04:20:00,
2013-01-07 22:25:00,53.4,45.3,30.04,ENE,68,10.4,10.4,74,0.00,OVC,,0.00,WeatherDisplay:10.37,2013-01-08 04:25:00,
2013-01-07 22:30:00,53.2,46.9,30.04,NE,45,11.5,11.5,79,0.00,OVC,,0.00,WeatherDisplay:10.37,2013-01-08 04:30:00,
2013-01-07 22:35:00,52.9,47.5,30.04,ENE,68,9.2,9.2,82,0.00,OVC,,0.00,WeatherDisplay:10.37,2013-01-08 04:35:00,
2013-01-07 22:40:00,52.7,47.4,30.04,NE,45,9.2,9.2,82,0.00,OVC,,0.00,WeatherDisplay:10.37,2013-01-08 04:40:00,
2013-01-07 22:45:00,52.5,48.5,30.01,ENE,68,6.0,6.0,86,0.00,OVC,,0.00,WeatherDisplay:10.37,2013-01-08 04:45:00,
2013-01-07 22:50:00,52.2,49.6,30.01,NE,45,4.6,4.9,91,0.00,OVC,,0.00,WeatherDisplay:10.37,2013-01-08 04:50:00,
2013-01-07 22:55:00,52.0,50.9,30.01,ENE,68,6.9,6.9,96,0.00,OVC,,0.00,WeatherDisplay:10.37,2013-01-08 04:55:00,
2013-01-07 23:03:00,51.6,50.5,30.04,NE,45,5.8,5.8,96,0.00,OVC,,0.00,WeatherDisplay:10.37,2013-01-08 05:03:00,
2013-01-07 23:08:00,51.4,50.3,30.04,ENE,68,5.8,5.8,96,0.00,OVC,,0.00,WeatherDisplay:10.37,2013-01-08 05:08:00,
2013-01-07 23:13:00,51.3,50.2,30.04,NNE,22,6.9,6.9,96,0.00,OVC,,0.00,WeatherDisplay:10.37,2013-01-08 05:13:00,
2013-01-07 23:18:00,51.1,50.0,30.04,NE,45,4.6,4.6,96,0.00,OVC,,0.00,WeatherDisplay:10.37,2013-01-08 05:18:00,
2013-01-07 23:23:00,51.1,50.0,30.04,ENE,68,6.9,6.9,96,0.00,OVC,,0.00,WeatherDisplay:10.37,2013-01-08 05:23:00,
2013-01-07 23:28:00,50.9,49.8,30.04,ENE,68,3.5,5.4,96,0.00,OVC,,0.00,WeatherDisplay:10.37,2013-01-08 05:28:00,
2013-01-07 23:33:00,51.1,50.0,30.04,NE,45,5.8,5.8,96,0.00,OVC,,0.00,WeatherDisplay:10.37,2013-01-08 05:33:00,
2013-01-07 23:38:00,51.1,50.0,30.04,NNW,338,8.1,8.1,96,0.00,OVC,,0.00,WeatherDisplay:10.37,2013-01-08 05:38:00,
2013-01-07 23:43:00,50.9,49.8,30.04,ENE,68,5.8,5.8,96,0.00,OVC,,0.00,WeatherDisplay:10.37,2013-01-08 05:43:00,
2013-01-07 23:48:00,50.7,49.6,30.04,NE,45,6.9,6.9,96,0.00,OVC,,0.00,WeatherDisplay:10.37,2013-01-08 05:48:00,
2013-01-07 23:53:00,50.7,49.6,30.04,North,0,5.8,6.2,96,0.00,OVC,,0.00,WeatherDisplay:10.37,2013-01-08 05:53:00,
2013-01-07 23:58:00,50.7,49.6,30.04,NNE,22,5.8,5.8,96,0.00,OVC,,0.00,WeatherDisplay:10.37,2013-01-08 05:58:00,